Time;durP1;ratioP1;P1;durP2;ratioP2;P2;SDS_P1;SDS_P2;PMS_P1;PMS_P2;Temp;Humidity;BMP_temperature;BMP_pressure;BME280_temperature;BME280_humidity;BME280_pressure;Samples;Min_cycle;Max_cycle;Signal;HPM_P1;HPM_P2
2023/05/18 00:02:00;;;;;;;9.40;5.00;;;;;;;17.57;52.14;99943.64;106602;1252;73795;-77
2023/05/18 00:04:28;;;;;;;11.70;4.50;;;;;;;17.55;52.10;99943.39;106402;1253;71286;-78
2023/05/18 00:07:02;;;;;;;5.00;4.40;;;;;;;17.53;52.04;99947.36;106259;1253;72272;-77
2023/05/18 00:09:34;;;;;;;5.80;4.40;;;;;;;17.52;52.14;99949.39;106441;1256;62693;-80
2023/05/18 00:12:02;;;;;;;9.70;4.30;;;;;;;17.50;52.18;99948.00;106556;1253;61687;-81
2023/05/18 00:14:29;;;;;;;9.10;4.70;;;;;;;17.48;52.07;99951.42;106219;1256;75391;-80
2023/05/18 00:16:56;;;;;;;8.30;4.60;;;;;;;17.47;52.12;99954.31;106007;1257;71377;-80
2023/05/18 00:19:23;;;;;;;7.20;4.80;;;;;;;17.44;52.00;99953.58;106188;1253;74729;-80
2023/05/18 00:21:51;;;;;;;4.80;3.80;;;;;;;17.43;51.95;99959.53;106393;1253;60695;-80
2023/05/18 00:24:18;;;;;;;7.20;4.40;;;;;;;17.41;51.81;99958.00;105952;1252;60549;-78
2023/05/18 00:26:46;;;;;;;5.50;4.20;;;;;;;17.39;51.94;99958.45;107147;1253;74791;-80
2023/05/18 00:29:13;;;;;;;6.90;4.10;;;;;;;17.38;52.05;99954.11;106938;1253;71590;-78
2023/05/18 00:31:40;;;;;;;6.10;4.10;;;;;;;17.36;52.17;99952.09;107064;1256;70596;-79
2023/05/18 00:34:10;;;;;;;9.80;4.60;;;;;;;17.33;52.25;99950.08;106862;1253;60520;-79
2023/05/18 00:36:38;;;;;;;8.70;4.30;;;;;;;17.32;52.49;99951.55;106462;1254;60474;-77
2023/05/18 00:39:05;;;;;;;10.60;4.50;;;;;;;17.29;52.62;99951.89;106325;1260;74588;-79
2023/05/18 00:41:32;;;;;;;5.30;4.50;;;;;;;17.26;52.67;99953.34;106871;1253;71774;-78
2023/05/18 00:43:59;;;;;;;6.30;5.20;;;;;;;17.25;52.88;99954.45;109349;1251;75065;-79
2023/05/18 00:46:27;;;;;;;7.40;4.50;;;;;;;17.22;53.04;99958.41;109525;1253;61494;-79
2023/05/18 00:49:00;;;;;;;9.10;4.80;;;;;;;17.20;53.04;99956.63;109269;1251;58806;-79
2023/05/18 00:51:27;;;;;;;6.80;4.80;;;;;;;17.19;53.31;99959.36;109276;1253;72337;-80
2023/05/18 00:53:55;;;;;;;8.50;4.60;;;;;;;17.15;54.09;99956.31;109271;1252;71297;-81
2023/05/18 00:56:23;;;;;;;9.20;5.10;;;;;;;17.07;54.68;99955.52;109421;1251;71534;-79
2023/05/18 00:58:54;;;;;;;13.60;5.40;;;;;;;16.98;54.88;99957.03;109381;1253;60976;-80
2023/05/18 01:01:30;;;;;;;8.20;5.70;;;;;;;16.89;55.35;99957.02;109488;1251;61332;-79
2023/05/18 01:04:01;;;;;;;9.10;5.40;;;;;;;16.79;55.71;99957.65;109671;1251;71979;-80
2023/05/18 01:06:39;;;;;;;9.60;4.90;;;;;;;16.69;55.82;99956.21;109577;1251;71446;-80
2023/05/18 01:09:09;;;;;;;10.50;5.20;;;;;;;16.62;55.68;99955.00;109501;1251;73954;-82
2023/05/18 01:11:43;;;;;;;7.20;5.00;;;;;;;16.59;55.81;99958.13;109443;1252;61287;-80
2023/05/18 01:14:30;;;;;;;8.70;4.70;;;;;;;16.56;55.66;99956.55;109516;1258;59987;-80
2023/05/18 01:17:18;;;;;;;7.80;4.60;;;;;;;16.53;55.85;99956.38;109427;1251;74849;-79
2023/05/18 01:19:54;;;;;;;5.80;4.90;;;;;;;16.51;56.24;99960.20;109551;1253;71317;-82
2023/05/18 01:22:32;;;;;;;9.60;6.20;;;;;;;16.46;56.54;99959.23;109488;1253;73551;-80
2023/05/18 01:25:03;;;;;;;6.60;5.00;;;;;;;16.43;56.40;99959.89;109395;1253;61164;-80
2023/05/18 01:27:36;;;;;;;6.00;5.40;;;;;;;16.40;56.75;99960.86;109388;1255;61173;-79
2023/05/18 01:30:06;;;;;;;9.20;5.10;;;;;;;16.36;57.13;99962.93;109447;1251;73856;-80
2023/05/18 01:32:41;;;;;;;8.40;5.20;;;;;;;16.31;57.48;99965.00;109213;1252;71418;-77
2023/05/18 01:35:08;;;;;;;7.60;5.60;;;;;;;16.24;57.80;99965.92;109404;1254;73334;-79
2023/05/18 01:37:35;;;;;;;9.10;5.70;;;;;;;16.18;58.12;99966.02;109094;1252;61121;-77
2023/05/18 01:40:03;;;;;;;8.20;5.20;;;;;;;16.11;58.35;99967.76;109424;1253;61224;-79
2023/05/18 01:42:30;;;;;;;10.60;5.60;;;;;;;16.06;58.71;99976.09;109288;1253;75841;-79
2023/05/18 01:44:59;;;;;;;8.50;5.20;;;;;;;16.03;58.91;99975.15;109126;1254;71611;-79
2023/05/18 01:47:27;;;;;;;8.80;5.60;;;;;;;16.00;59.24;99971.83;109318;1253;73608;-80
2023/05/18 01:50:16;;;;;;;10.90;5.50;;;;;;;15.96;59.42;99976.55;109110;1251;62561;-80
2023/05/18 01:53:02;;;;;;;6.00;5.10;;;;;;;15.93;59.53;99977.56;108737;1252;60704;-81
2023/05/18 01:55:29;;;;;;;6.90;5.40;;;;;;;15.93;59.58;99982.55;108421;1251;74820;-80
2023/05/18 01:57:57;;;;;;;6.60;4.70;;;;;;;15.93;59.74;99982.05;108078;1254;71258;-81
2023/05/18 02:00:23;;;;;;;9.40;5.90;;;;;;;15.89;59.86;99986.98;107911;1254;73661;-78
2023/05/18 02:02:50;;;;;;;9.90;6.00;;;;;;;15.86;60.05;99985.91;108175;1253;59013;-79
2023/05/18 02:05:17;;;;;;;8.60;6.70;;;;;;;15.84;60.25;99986.64;108688;1254;61261;-80
2023/05/18 02:07:47;;;;;;;7.80;5.80;;;;;;;15.81;60.36;99985.69;108600;1256;74783;-79
2023/05/18 02:10:14;;;;;;;12.00;6.80;;;;;;;15.79;60.38;99993.45;108489;1251;71020;-79
2023/05/18 02:12:41;;;;;;;8.20;5.80;;;;;;;15.76;60.52;99992.66;109198;1257;72835;-81
2023/05/18 02:15:08;;;;;;;7.50;5.80;;;;;;;15.75;60.46;99994.91;108549;1256;61188;-79
2023/05/18 02:17:38;;;;;;;6.30;5.20;;;;;;;15.74;60.72;99996.93;108745;1252;61304;-79
2023/05/18 02:20:06;;;;;;;7.10;4.70;;;;;;;15.73;59.82;99998.11;108666;1254;75334;-80
2023/05/18 02:22:35;;;;;;;7.70;4.80;;;;;;;15.75;58.89;99997.76;108664;1251;71149;-81
2023/05/18 02:25:03;;;;;;;7.60;4.80;;;;;;;15.79;58.71;99999.61;108466;1251;71267;-79
2023/05/18 02:27:32;;;;;;;9.20;5.20;;;;;;;15.84;58.35;99999.84;108652;1257;61130;-79
2023/05/18 02:29:59;;;;;;;7.40;5.00;;;;;;;15.89;58.10;100000.41;108753;1258;437230;-79
2023/05/18 02:34:23;;;;;;;7.90;4.50;;;;;;;16.01;57.85;100002.87;105872;1291;600201;-82
2023/05/18 02:36:50;;;;;;;6.70;5.20;;;;;;;16.03;57.50;100003.45;108373;1267;57788;-80
2023/05/18 02:39:17;;;;;;;8.20;4.90;;;;;;;16.07;57.23;100005.09;108319;1267;59096;-78
2023/05/18 02:41:45;;;;;;;7.40;4.50;;;;;;;16.09;57.38;100003.13;108302;1268;73262;-79
2023/05/18 02:44:11;;;;;;;8.20;4.50;;;;;;;16.13;57.07;100002.65;108310;1267;71743;-79
2023/05/18 02:46:38;;;;;;;6.30;4.40;;;;;;;16.18;57.26;100006.74;107717;1268;74141;-79
2023/05/18 02:49:05;;;;;;;9.70;5.60;;;;;;;16.21;57.07;100008.26;107829;1265;349073;-81
2023/05/18 02:51:32;;;;;;;7.50;5.40;;;;;;;16.24;57.12;100008.06;108115;1265;59119;-79
2023/05/18 02:54:00;;;;;;;11.90;5.30;;;;;;;16.26;56.95;100003.42;108301;1265;73252;-79
2023/05/18 02:56:28;;;;;;;9.30;5.70;;;;;;;16.30;56.91;100008.35;107435;1265;71356;-77
2023/05/18 02:59:04;;;;;;;7.20;6.00;;;;;;;16.33;56.97;100005.48;105457;1270;73594;-80
2023/05/18 03:01:37;;;;;;;7.60;6.30;;;;;;;16.35;56.77;100008.83;105423;1266;61119;-78
2023/05/18 03:04:04;;;;;;;8.60;7.10;;;;;;;16.36;56.91;100007.98;105801;1265;62171;-78
2023/05/18 03:06:31;;;;;;;8.60;7.40;;;;;;;16.36;57.04;100006.75;105603;1271;73058;-79
2023/05/18 03:08:58;;;;;;;7.60;6.80;;;;;;;16.36;56.75;100012.58;105489;1268;71225;-79
2023/05/18 03:11:31;;;;;;;8.60;6.60;;;;;;;16.36;56.68;100010.56;105182;1266;72814;-81
2023/05/18 03:13:58;;;;;;;9.10;6.90;;;;;;;16.38;56.73;100014.53;105014;1268;61418;-81
2023/05/18 03:16:27;;;;;;;7.60;5.70;;;;;;;16.39;56.65;100017.21;105305;1266;62545;-80
2023/05/18 03:18:57;;;;;;;6.50;5.90;;;;;;;16.37;56.52;100014.64;107339;1266;75071;-79
2023/05/18 03:21:32;;;;;;;9.20;6.40;;;;;;;16.42;56.39;100023.59;107386;1265;71531;-80
2023/05/18 03:24:01;;;;;;;7.00;6.20;;;;;;;16.45;56.14;100025.91;107530;1264;73575;-82
2023/05/18 03:26:29;;;;;;;9.30;6.10;;;;;;;16.50;55.94;100027.23;107334;1265;61020;-79
2023/05/18 03:28:57;;;;;;;6.10;5.40;;;;;;;16.53;55.62;100023.38;105540;1270;62349;-79
2023/05/18 03:31:24;;;;;;;10.60;6.30;;;;;;;16.58;55.53;100025.53;105897;1266;72314;-78
2023/05/18 03:33:51;;;;;;;7.30;5.80;;;;;;;16.61;55.09;100024.85;106485;1262;71185;-81
2023/05/18 03:36:21;;;;;;;10.80;6.30;;;;;;;16.65;55.17;100025.98;105881;1262;73461;-81
2023/05/18 03:38:48;;;;;;;10.10;6.00;;;;;;;16.69;55.08;100026.70;105481;1262;59867;-80
2023/05/18 03:41:15;;;;;;;8.60;6.40;;;;;;;16.72;55.20;100023.40;105463;1262;59632;-80
2023/05/18 03:43:42;;;;;;;7.40;6.30;;;;;;;16.77;55.15;100029.45;105924;1260;74017;-81
2023/05/18 03:46:10;;;;;;;9.50;6.20;;;;;;;16.81;55.16;100031.45;105800;1260;69167;-79
2023/05/18 03:48:37;;;;;;;10.30;5.90;;;;;;;16.84;55.01;100033.14;106047;1262;71452;-82
2023/05/18 03:51:05;;;;;;;10.10;5.40;;;;;;;16.88;55.02;100031.44;106027;1263;60327;-79
2023/05/18 03:53:32;;;;;;;9.20;5.70;;;;;;;16.92;55.07;100033.41;106193;1261;60040;-81
2023/05/18 03:56:00;;;;;;;6.40;5.50;;;;;;;16.97;54.83;100037.78;106586;1263;75301;-82
2023/05/18 03:58:28;;;;;;;8.00;5.70;;;;;;;17.02;54.84;100034.70;105930;1256;71272;-81
2023/05/18 04:00:56;;;;;;;6.10;4.90;;;;;;;17.08;54.76;100037.70;106082;1256;74072;-79
2023/05/18 04:03:25;;;;;;;9.10;5.00;;;;;;;17.15;54.51;100036.42;105710;1263;59655;-79
2023/05/18 04:05:54;;;;;;;11.30;5.30;;;;;;;17.23;54.49;100035.57;105876;1257;63120;-80
2023/05/18 04:08:24;;;;;;;12.50;5.60;;;;;;;17.30;54.45;100038.14;105903;1256;73639;-81
2023/05/18 04:10:51;;;;;;;11.10;5.70;;;;;;;17.38;55.07;100037.63;105874;1256;70189;-80
2023/05/18 04:13:18;;;;;;;12.70;5.80;;;;;;;17.46;55.88;100039.43;106396;1257;74842;-75
2023/05/18 04:15:46;;;;;;;11.80;5.50;;;;;;;17.55;56.57;100044.48;106891;1256;60583;-79
2023/05/18 04:18:13;;;;;;;9.90;5.30;;;;;;;17.69;56.51;100046.37;106300;1260;61363;-79
2023/05/18 04:20:41;;;;;;;11.40;5.50;;;;;;;17.82;55.05;100048.59;105895;1257;71499;-82
2023/05/18 04:23:08;;;;;;;8.30;5.10;;;;;;;17.98;54.06;100053.62;105962;1263;70670;-84
2023/05/18 04:25:38;;;;;;;7.00;5.30;;;;;;;18.11;53.60;100057.23;105756;1256;74988;-80
2023/05/18 04:28:05;;;;;;;7.00;5.00;;;;;;;18.23;53.04;100057.30;106420;1259;60296;-80
2023/05/18 04:30:34;;;;;;;7.80;5.30;;;;;;;18.36;52.60;100057.59;106008;1256;62720;-82
2023/05/18 04:33:02;;;;;;;5.80;5.20;;;;;;;18.54;52.36;100056.09;106506;1256;74341;-81
2023/05/18 04:35:30;;;;;;;8.90;4.90;;;;;;;18.68;52.12;100053.83;107092;1256;71640;-81
2023/05/18 04:37:58;;;;;;;9.00;5.30;;;;;;;18.82;51.51;100061.88;107308;1261;72141;-78
2023/05/18 04:40:25;;;;;;;10.00;5.30;;;;;;;18.92;50.73;100062.29;106658;1256;62542;-79
2023/05/18 04:42:52;;;;;;;6.30;4.70;;;;;;;19.00;50.28;100065.64;106366;1256;62277;-78
2023/05/18 04:45:25;;;;;;;6.90;5.00;;;;;;;19.06;49.80;100065.20;106271;1256;75104;-79
2023/05/18 04:47:54;;;;;;;6.80;4.70;;;;;;;19.11;49.72;100070.42;105797;1256;71311;-78
2023/05/18 04:50:24;;;;;;;7.30;5.20;;;;;;;19.18;49.66;100067.23;105869;1257;72156;-80
2023/05/18 04:52:51;;;;;;;6.90;4.20;;;;;;;19.33;49.40;100065.30;105904;1256;61200;-80
2023/05/18 04:55:27;;;;;;;8.40;5.20;;;;;;;19.50;49.11;100065.89;105938;1256;62446;-76
2023/05/18 04:58:04;;;;;;;8.90;6.00;;;;;;;19.67;48.86;100071.63;106155;1256;73765;-78
2023/05/18 05:00:32;;;;;;;8.00;4.90;;;;;;;19.79;48.54;100074.85;105393;1256;72504;-79
2023/05/18 05:02:58;;;;;;;9.10;5.10;;;;;;;19.90;48.57;100073.85;105849;1259;74067;-81
2023/05/18 05:05:26;;;;;;;8.10;4.70;;;;;;;19.99;48.24;100076.84;106169;1256;61050;-79
2023/05/18 05:07:54;;;;;;;6.30;5.20;;;;;;;20.07;47.89;100078.96;106099;1256;61188;-86
2023/05/18 05:10:21;;;;;;;9.60;4.50;;;;;;;20.13;47.86;100081.95;106270;1256;75058;-78
2023/05/18 05:12:49;;;;;;;11.90;5.40;;;;;;;20.17;47.85;100080.33;106668;1256;69488;-79
2023/05/18 05:15:17;;;;;;;8.90;4.70;;;;;;;20.21;47.74;100081.77;106585;1262;74621;-83
2023/05/18 05:17:48;;;;;;;7.20;3.90;;;;;;;20.26;47.35;100085.63;105904;1261;59572;-82
2023/05/18 05:20:15;;;;;;;5.60;4.40;;;;;;;20.25;47.28;100082.90;105898;1263;62733;-81
2023/05/18 05:22:43;;;;;;;6.30;5.10;;;;;;;20.27;47.39;100085.31;105650;1264;74667;-78
2023/05/18 05:25:12;;;;;;;8.20;4.70;;;;;;;20.27;47.26;100083.63;105917;1261;70809;-81
2023/05/18 05:27:39;;;;;;;11.30;5.30;;;;;;;20.27;47.14;100084.57;105820;1262;73801;-76
2023/05/18 05:30:07;;;;;;;14.30;4.80;;;;;;;20.24;47.42;100085.73;106761;1261;61805;-75
2023/05/18 05:32:35;;;;;;;7.70;4.50;;;;;;;20.29;47.62;100087.59;106103;1256;61213;-77
2023/05/18 05:35:04;;;;;;;6.70;5.00;;;;;;;20.37;47.62;100088.33;106778;1256;73949;-78
2023/05/18 05:37:32;;;;;;;6.90;5.10;;;;;;;20.44;47.23;100089.41;105906;1256;70492;-77
2023/05/18 05:39:59;;;;;;;7.30;4.70;;;;;;;20.51;47.06;100083.61;106065;1261;72242;-80
2023/05/18 05:42:28;;;;;;;8.50;4.70;;;;;;;20.58;47.04;100085.23;105798;1262;59563;-78
2023/05/18 05:44:55;;;;;;;9.00;4.70;;;;;;;20.66;47.02;100083.80;105696;1257;61399;-82
2023/05/18 05:47:24;;;;;;;6.00;4.80;;;;;;;20.77;47.08;100088.27;105628;1256;74140;-80
2023/05/18 05:49:51;;;;;;;6.90;4.20;;;;;;;20.86;46.91;100090.45;105721;1262;71447;-83
2023/05/18 05:52:19;;;;;;;6.00;4.50;;;;;;;20.92;46.70;100094.48;105610;1259;72548;-82
2023/05/18 05:54:46;;;;;;;9.50;4.20;;;;;;;20.99;46.65;100094.02;105579;1259;61431;-80
2023/05/18 05:57:13;;;;;;;5.30;4.40;;;;;;;21.08;46.43;100099.59;105627;1256;62776;-79
2023/05/18 05:59:40;;;;;;;5.70;4.10;;;;;;;21.15;46.16;100100.48;105528;1256;72875;-80
2023/05/18 06:02:07;;;;;;;8.40;4.30;;;;;;;21.21;46.02;100101.82;105614;1264;71369;-82
2023/05/18 06:04:35;;;;;;;6.80;4.50;;;;;;;21.28;45.82;100097.49;105411;1265;70663;-75
2023/05/18 06:07:02;;;;;;;9.00;4.60;;;;;;;21.32;45.52;100094.84;105533;1260;61717;-74
2023/05/18 06:09:29;;;;;;;6.60;4.80;;;;;;;21.37;45.24;100095.95;105741;1259;62421;-73
2023/05/18 06:11:56;;;;;;;7.70;4.60;;;;;;;21.42;45.14;100096.41;105563;1256;73934;-76
2023/05/18 06:14:24;;;;;;;7.80;4.60;;;;;;;21.49;44.97;100100.33;105428;1259;71234;-72
2023/05/18 06:16:52;;;;;;;9.70;5.60;;;;;;;21.56;44.79;100099.93;105572;1256;74737;-73
2023/05/18 06:19:19;;;;;;;11.10;8.30;;;;;;;21.62;44.46;100103.86;105708;1256;60240;-71
2023/05/18 06:21:46;;;;;;;9.50;5.30;;;;;;;21.67;44.21;100103.20;105524;1258;62173;-72
2023/05/18 06:24:13;;;;;;;5.50;4.60;;;;;;;21.71;43.78;100109.34;105246;1264;74820;-73
2023/05/18 06:26:52;;;;;;;7.20;4.30;;;;;;;21.74;43.91;100108.16;105428;1261;74524;-73
2023/05/18 06:29:45;;;;;;;7.50;4.60;;;;;;;21.81;43.84;100111.68;105431;1256;72757;-73
2023/05/18 06:32:12;;;;;;;5.30;4.30;;;;;;;21.87;43.42;100114.42;105586;1264;59836;-74
2023/05/18 06:34:44;;;;;;;5.70;4.00;;;;;;;21.92;43.04;100112.45;105817;1253;60133;-73
2023/05/18 06:37:11;;;;;;;5.80;4.50;;;;;;;21.95;42.74;100113.06;105560;1261;74977;-72
2023/05/18 06:39:39;;;;;;;7.10;4.30;;;;;;;21.97;42.62;100111.73;105740;1253;72121;-73
2023/05/18 06:42:06;;;;;;;6.40;4.30;;;;;;;21.97;42.39;100111.20;105642;1258;74652;-73
2023/05/18 06:44:34;;;;;;;6.90;4.40;;;;;;;21.99;42.38;100112.16;105829;1253;61465;-73
2023/05/18 06:47:16;;;;;;;6.30;4.70;;;;;;;22.02;42.55;100108.34;105765;1259;60433;-74
2023/05/18 06:49:43;;;;;;;13.40;5.40;;;;;;;22.05;42.61;100112.73;105689;1258;75894;-73
2023/05/18 06:52:10;;;;;;;8.00;4.40;;;;;;;22.11;42.45;100114.61;105537;1256;71971;-72
2023/05/18 06:54:37;;;;;;;23.60;4.60;;;;;;;22.17;42.34;100114.31;105606;1262;74605;-75
2023/05/18 06:57:04;;;;;;;8.30;3.90;;;;;;;22.18;42.23;100110.67;105709;1257;62482;-74
2023/05/18 06:59:33;;;;;;;8.00;4.20;;;;;;;22.21;42.20;100112.63;105872;1259;60544;-71
2023/05/18 07:02:00;;;;;;;4.60;3.50;;;;;;;22.26;41.76;100111.20;105800;1262;75689;-73
2023/05/18 07:04:28;;;;;;;7.70;3.60;;;;;;;22.29;41.39;100114.18;105916;1253;72586;-74
2023/05/18 07:06:55;;;;;;;6.60;3.90;;;;;;;22.30;41.36;100119.02;105592;1256;73735;-73
2023/05/18 07:09:22;;;;;;;8.90;3.90;;;;;;;22.30;41.03;100119.13;105728;1253;60518;-74
2023/05/18 07:11:49;;;;;;;5.90;3.20;;;;;;;22.31;40.79;100119.80;105730;1258;61083;-71
2023/05/18 07:14:16;;;;;;;5.90;3.70;;;;;;;22.33;40.08;100119.38;105890;1256;75914;-72
2023/05/18 07:16:45;;;;;;;6.40;3.70;;;;;;;22.35;39.11;100115.57;105769;1253;72644;-72
2023/05/18 07:19:13;;;;;;;5.90;3.80;;;;;;;22.34;39.10;100114.77;105780;1258;72617;-72
2023/05/18 07:21:40;;;;;;;6.20;3.60;;;;;;;22.36;39.22;100111.96;105711;1253;60541;-74
2023/05/18 07:24:07;;;;;;;6.80;3.90;;;;;;;22.41;39.43;100112.70;105800;1253;62382;-75
2023/05/18 07:26:35;;;;;;;6.90;3.70;;;;;;;22.46;39.64;100121.98;105827;1256;75797;-73
2023/05/18 07:29:03;;;;;;;4.30;3.30;;;;;;;22.51;39.84;100123.02;105790;1263;69910;-71
2023/05/18 07:31:32;;;;;;;8.00;3.40;;;;;;;22.56;39.84;100126.90;105869;1260;71809;-72
2023/05/18 07:33:59;;;;;;;4.40;3.60;;;;;;;22.61;39.37;100131.88;106012;1256;62705;-76
2023/05/18 07:36:27;;;;;;;5.10;3.20;;;;;;;22.63;38.75;100134.62;106179;1256;62302;-75
2023/05/18 07:38:55;;;;;;;5.20;3.70;;;;;;;22.64;38.90;100139.26;106046;1258;72421;-73
2023/05/18 07:41:22;;;;;;;6.20;3.60;;;;;;;22.68;39.06;100136.92;105944;1259;72693;-73
2023/05/18 07:43:50;;;;;;;5.70;3.60;;;;;;;22.72;39.26;100135.52;105830;1254;72457;-72
2023/05/18 07:46:17;;;;;;;7.90;3.80;;;;;;;22.73;39.03;100132.15;105784;1256;60529;-68
2023/05/18 07:48:45;;;;;;;6.50;3.80;;;;;;;22.80;38.76;100138.17;105911;1259;60929;-70
2023/05/18 07:51:12;;;;;;;7.30;3.90;;;;;;;22.86;38.66;100135.65;105507;1258;75810;-72
2023/05/18 07:53:40;;;;;;;8.50;4.10;;;;;;;22.91;38.86;100136.59;105986;1259;72505;-71
2023/05/18 07:56:07;;;;;;;7.60;4.40;;;;;;;22.99;38.79;100138.35;105799;1258;71485;-71
2023/05/18 07:58:34;;;;;;;6.10;4.40;;;;;;;23.06;37.75;100135.85;105811;1256;61108;-73
2023/05/18 08:01:02;;;;;;;6.00;4.80;;;;;;;23.08;37.43;100139.47;105662;1253;61401;-74
2023/05/18 08:03:28;;;;;;;9.60;4.60;;;;;;;23.09;37.83;100137.00;105544;1255;74836;-74
2023/05/18 08:05:55;;;;;;;6.60;4.70;;;;;;;23.13;37.81;100136.29;105766;1259;71188;-73
2023/05/18 08:08:23;;;;;;;5.20;3.90;;;;;;;23.21;37.06;100135.49;105624;1260;73640;-74
2023/05/18 08:10:51;;;;;;;6.50;4.60;;;;;;;23.25;36.94;100133.80;105792;1256;60762;-75
2023/05/18 08:13:18;;;;;;;5.70;4.80;;;;;;;23.31;36.96;100134.50;106040;1259;61704;-74
2023/05/18 08:15:45;;;;;;;5.90;4.80;;;;;;;23.36;36.96;100143.54;105917;1253;74332;-73
2023/05/18 08:19:01;;;;;;;9.60;5.70;;;;;;;23.44;37.11;100143.36;106972;1257;71252;31
2023/05/18 08:21:28;;;;;;;8.80;5.10;;;;;;;23.50;37.34;100137.72;105163;1268;73735;-67
2023/05/18 08:23:55;;;;;;;6.70;4.70;;;;;;;23.54;37.29;100139.20;105039;1268;61305;-74
2023/05/18 08:26:23;;;;;;;7.50;5.30;;;;;;;23.62;37.22;100136.52;104873;1266;62217;-71
2023/05/18 08:28:50;;;;;;;8.40;5.20;;;;;;;23.73;37.01;100129.96;104543;1270;75866;-72
2023/05/18 08:31:17;;;;;;;6.40;5.30;;;;;;;23.85;36.94;100126.08;104987;1270;70562;-69
2023/05/18 08:33:44;;;;;;;6.20;5.60;;;;;;;23.99;36.76;100129.29;104773;1268;72606;-71
2023/05/18 08:36:11;;;;;;;6.90;6.30;;;;;;;24.13;36.63;100135.19;104886;1268;62483;-69
2023/05/18 08:38:38;;;;;;;9.00;7.00;;;;;;;24.27;36.36;100133.45;104976;1267;60799;-69
2023/05/18 08:41:16;;;;;;;10.90;6.70;;;;;;;24.42;36.12;100127.85;104898;1273;75820;-71
2023/05/18 08:43:45;;;;;;;8.10;7.10;;;;;;;24.59;35.84;100135.12;104988;1268;72272;-71
2023/05/18 08:46:20;;;;;;;10.10;7.90;;;;;;;24.75;35.52;100129.02;105088;1265;72730;-71
2023/05/18 08:48:47;;;;;;;9.70;8.00;;;;;;;24.90;35.52;100123.19;105102;1267;60426;-70
2023/05/18 08:51:18;;;;;;;11.70;8.30;;;;;;;25.05;35.50;100120.19;104487;1273;60371;-72
2023/05/18 08:53:56;;;;;;;12.40;7.10;;;;;;;25.26;35.18;100118.77;105159;1268;75620;-70
2023/05/18 08:56:23;;;;;;;9.60;8.00;;;;;;;25.46;35.05;100110.10;105053;1269;71339;-69
2023/05/18 08:58:53;;;;;;;8.40;7.60;;;;;;;25.66;34.76;100106.30;104917;1271;73433;-74
2023/05/18 09:01:22;;;;;;;8.10;7.30;;;;;;;25.88;34.82;100106.39;104863;1272;63509;-71
2023/05/18 09:03:49;;;;;;;8.40;7.60;;;;;;;26.17;33.73;100117.71;104888;1270;62072;-72
2023/05/18 09:06:17;;;;;;;10.30;8.30;;;;;;;26.36;33.31;100106.16;104887;1267;74744;-70
2023/05/18 09:08:44;;;;;;;9.40;8.40;;;;;;;26.58;33.29;100104.00;104801;1271;71134;-71
2023/05/18 09:11:11;;;;;;;9.00;7.70;;;;;;;26.87;32.48;100107.25;105166;1265;72858;-71
2023/05/18 09:13:38;;;;;;;9.00;8.10;;;;;;;27.08;32.76;100106.92;105039;1265;62397;-72
2023/05/18 09:16:06;;;;;;;8.70;7.90;;;;;;;27.34;31.76;100097.02;104816;1266;60356;-71
2023/05/18 09:18:33;;;;;;;8.10;7.30;;;;;;;27.67;31.19;100105.02;104977;1270;76214;-72
2023/05/18 09:21:00;;;;;;;8.90;7.30;;;;;;;28.06;30.89;100100.84;104914;1267;72056;-73
2023/05/18 09:23:27;;;;;;;8.70;7.90;;;;;;;28.52;30.47;100100.86;104526;1273;74996;-70
2023/05/18 09:25:54;;;;;;;8.40;7.60;;;;;;;28.96;30.42;100106.91;104786;1267;62344;-70
2023/05/18 09:28:31;;;;;;;7.70;6.80;;;;;;;29.49;30.19;100100.20;104409;1267;62246;-72
2023/05/18 09:30:58;;;;;;;7.10;6.50;;;;;;;30.19;29.50;100097.80;104834;1271;73993;-72
2023/05/18 09:33:25;;;;;;;7.60;7.00;;;;;;;30.76;28.45;100090.56;104965;1271;71636;-69
2023/05/18 09:35:52;;;;;;;6.90;6.20;;;;;;;31.28;27.33;100090.85;104714;1271;75047;-71
2023/05/18 09:38:23;;;;;;;7.70;6.90;;;;;;;31.69;27.17;100093.67;104803;1267;62423;-73
2023/05/18 09:40:50;;;;;;;7.60;6.90;;;;;;;31.96;27.15;100094.73;104794;1267;62208;-71
2023/05/18 09:43:20;;;;;;;7.00;6.40;;;;;;;32.15;26.92;100100.63;104730;1267;76247;-71
2023/05/18 09:45:48;;;;;;;7.10;6.60;;;;;;;32.23;26.87;100084.14;104842;1273;70993;-69
2023/05/18 09:48:15;;;;;;;6.70;6.10;;;;;;;32.43;26.78;100084.19;104533;1274;73477;-70
2023/05/18 09:50:42;;;;;;;7.20;6.60;;;;;;;32.77;26.97;100085.32;104517;1271;62515;-71
2023/05/18 09:53:10;;;;;;;7.70;6.90;;;;;;;33.18;26.42;100089.87;104936;1266;60894;-71
2023/05/18 09:55:43;;;;;;;7.50;6.90;;;;;;;33.53;25.79;100090.98;104799;1272;74364;-72
2023/05/18 09:58:10;;;;;;;11.50;7.20;;;;;;;33.56;25.56;100082.85;104842;1271;72364;-71
2023/05/18 10:00:41;;;;;;;7.10;6.50;;;;;;;33.61;26.05;100069.94;104669;1273;71387;-71
2023/05/18 10:03:19;;;;;;;13.30;6.60;;;;;;;34.10;25.76;100073.92;104951;1270;61294;-71
2023/05/18 10:05:46;;;;;;;7.90;6.60;;;;;;;34.69;25.05;100070.23;104792;1270;60462;-73
2023/05/18 10:08:14;;;;;;;8.40;6.90;;;;;;;34.90;24.76;100064.23;104758;1272;76003;-71
2023/05/18 10:10:45;;;;;;;8.40;6.70;;;;;;;35.20;24.75;100064.73;104832;1268;63952;-73
2023/05/18 10:13:18;;;;;;;7.60;6.80;;;;;;;35.61;24.31;100070.64;104575;1271;65191;-74
2023/05/18 10:15:55;;;;;;;9.20;6.00;;;;;;;35.91;24.07;100066.88;104939;1271;60478;-73
2023/05/18 10:18:23;;;;;;;7.10;6.50;;;;;;;36.18;24.04;100067.45;104709;1273;60530;-71
2023/05/18 10:20:51;;;;;;;7.20;6.50;;;;;;;36.42;23.78;100065.66;104880;1267;67645;-72
2023/05/18 10:23:19;;;;;;;7.80;6.70;;;;;;;36.56;23.57;100061.34;104788;1268;63770;-70
2023/05/18 10:25:47;;;;;;;9.60;7.20;;;;;;;36.72;23.51;100056.73;104988;1270;64952;-72
2023/05/18 10:28:36;;;;;;;7.10;6.30;;;;;;;36.94;23.49;100050.86;104895;1273;60395;-73
2023/05/18 10:31:03;;;;;;;8.80;7.10;;;;;;;37.05;23.46;100051.23;105007;1268;60551;-74
2023/05/18 10:33:30;;;;;;;7.10;6.50;;;;;;;37.17;23.34;100055.84;104862;1273;67165;-69
2023/05/18 10:35:57;;;;;;;7.40;5.90;;;;;;;37.38;23.04;100055.26;104931;1273;62944;-72
2023/05/18 10:38:26;;;;;;;7.70;6.60;;;;;;;37.56;22.93;100053.64;104971;1272;65030;-71
2023/05/18 10:40:59;;;;;;;6.70;6.10;;;;;;;37.68;22.55;100048.16;104994;1268;60458;-71
2023/05/18 10:43:26;;;;;;;13.00;7.70;;;;;;;37.72;22.68;100041.26;105007;1273;60884;-73
2023/05/18 10:45:55;;;;;;;7.50;6.80;;;;;;;37.66;22.41;100054.02;104863;1281;67344;-74
2023/05/18 10:48:23;;;;;;;8.20;6.50;;;;;;;37.55;22.38;100048.51;105091;1273;62852;-73
2023/05/18 10:50:51;;;;;;;7.50;6.70;;;;;;;37.29;22.61;100046.28;104955;1267;74615;-74
2023/05/18 10:53:19;;;;;;;7.30;6.60;;;;;;;36.89;22.44;100041.83;104890;1273;60462;-72
2023/05/18 10:55:47;;;;;;;7.70;7.10;;;;;;;36.45;22.86;100041.60;104985;1270;60543;-72
2023/05/18 10:58:15;;;;;;;8.60;6.90;;;;;;;36.34;23.11;100046.09;104981;1272;66448;-70
2023/05/18 11:00:46;;;;;;;7.00;6.50;;;;;;;36.70;22.88;100043.45;104991;1272;63421;-72
2023/05/18 11:03:13;;;;;;;6.90;6.30;;;;;;;37.29;22.67;100040.90;104813;1273;66294;-71
2023/05/18 11:05:40;;;;;;;6.40;5.80;;;;;;;37.90;22.27;100040.11;106222;1267;60375;-73
2023/05/18 11:08:07;;;;;;;7.00;6.30;;;;;;;38.43;21.66;100033.35;106916;1272;60299;-73
2023/05/18 11:10:35;;;;;;;7.00;6.30;;;;;;;38.84;21.07;100036.51;104912;1271;67317;-74
2023/05/18 11:13:02;;;;;;;6.90;6.20;;;;;;;38.98;20.69;100037.70;105108;1272;62983;-77
2023/05/18 11:15:58;;;;;;;6.60;6.10;;;;;;;38.92;20.50;100031.81;105115;1268;66054;-75
2023/05/18 11:18:34;;;;;;;7.00;6.30;;;;;;;38.75;20.39;100034.25;105080;1274;60565;-75
2023/05/18 11:21:00;;;;;;;8.00;5.70;;;;;;;38.54;20.84;100032.66;105297;1267;60558;-75
2023/05/18 11:23:31;;;;;;;6.60;6.00;;;;;;;38.51;20.52;100030.25;105360;1268;66291;-75
2023/05/18 11:26:04;;;;;;;9.00;6.50;;;;;;;38.44;20.40;100024.51;105376;1273;63566;-77
2023/05/18 11:28:32;;;;;;;7.00;6.40;;;;;;;38.44;20.40;100021.96;105371;1268;66036;-76